KNPA/NPA METAR and TAF weather

Enter ICAO airport designator
Station Type Date Time Source
KNPA METAR 2022/06/27 08:56 UTC NOAA

KNPA 270856Z AUTO 02003KT 8SM CLR 24/23 A3001 RMK AO2 SLP163 T02440228 56012 $


Station Type Date Time Source
KNPA Decoded METAR 2022/06/27 08:56 UTC NOAA

Pensacola, Naval Air Station, FL, United States (KNPA) 30-21-22N 087-19-24W 10M
Jun 27, 2022 - 04:56 AM EDT / 2022.06.27 0856 UTC
Wind: from the NNE (020 degrees) at 3 MPH (3 KT):0
Visibility: 8 mile(s):0
Sky conditions: clear
Temperature: 75.9 F (24.4 C)
Dew Point: 73.0 F (22.8 C)
Relative Humidity: 90%
Pressure (altimeter): 30.01 in. Hg (1016 hPa)
Pressure tendency: 0.04 inches (1.2 hPa) lower than three hours ago
ob: KNPA 270856Z AUTO 02003KT 8SM CLR 24/23 A3001 RMK AO2 SLP163 T02440228 56012
cycle: 9

Station Type Date Time Source
KNPA TAF 2022/06/27 07:13 UTC NOAA

TAF KNPA 2707/2807 VRB06KT 9999 SCT080 SCT250 QNH2998INS
BECMG 2720/2722 VRB06KT 9999 SKC QNH2996INS AUTOMATED SENSOR METWATCH 2707 TIL 2711 T22/2709Z T34/2720Z FN00259

Example: see airport list